Time;durP1;ratioP1;P1;durP2;ratioP2;P2;SDS_P1;SDS_P2;PMS_P1;PMS_P2;Temp;Humidity;BMP_temperature;BMP_pressure;BME280_temperature;BME280_humidity;BME280_pressure;Samples;Min_cycle;Max_cycle;Signal;HPM_P1;HPM_P2
2022/08/19 00:00:17;;;;;;;8.87;6.37;;;19.70;99.90;;;;;;5033230;28;20512;-72
2022/08/19 00:02:43;;;;;;;8.27;5.77;;;19.70;99.90;;;;;;5034573;28;20250;-72
2022/08/19 00:05:10;;;;;;;6.30;5.57;;;19.60;99.90;;;;;;5034304;28;20410;-73
2022/08/19 00:07:36;;;;;;;9.23;5.93;;;19.60;99.90;;;;;;5034559;28;20911;-72
2022/08/19 00:10:01;;;;;;;6.67;5.97;;;19.60;99.90;;;;;;5034220;28;20461;-73
2022/08/19 00:12:27;;;;;;;7.27;6.03;;;19.60;99.90;;;;;;5034338;28;20429;-72
2022/08/19 00:14:53;;;;;;;6.43;4.97;;;19.60;99.90;;;;;;5033973;28;20167;-73
2022/08/19 00:17:19;;;;;;;6.70;5.53;;;19.60;99.90;;;;;;5034328;28;20167;-72
2022/08/19 00:19:45;;;;;;;8.07;6.23;;;19.60;99.90;;;;;;5034181;28;20776;-73
2022/08/19 00:22:10;;;;;;;8.07;6.63;;;19.60;99.90;;;;;;5034064;28;20195;-73
2022/08/19 00:24:38;;;;;;;8.43;4.90;;;19.50;99.90;;;;;;5033808;28;20186;-73
2022/08/19 00:27:04;;;;;;;6.87;6.17;;;19.50;99.90;;;;;;5034037;28;20251;-72
2022/08/19 00:29:30;;;;;;;7.10;4.80;;;19.50;99.90;;;;;;5033978;28;20409;-73
2022/08/19 00:31:58;;;;;;;7.50;5.73;;;19.40;99.90;;;;;;5033735;28;20425;-73
2022/08/19 00:34:26;;;;;;;6.50;5.80;;;19.40;99.90;;;;;;5032622;28;20447;-72
2022/08/19 00:36:51;;;;;;;6.40;5.00;;;19.40;99.90;;;;;;5033797;28;20407;-73
2022/08/19 00:39:17;;;;;;;6.57;5.97;;;19.40;99.90;;;;;;5032576;28;20414;-72
2022/08/19 00:41:44;;;;;;;6.87;4.70;;;19.30;99.90;;;;;;5032400;28;20278;-73
2022/08/19 00:44:25;;;;;;;8.60;5.40;;;19.30;99.90;;;;;;5033674;28;20589;-73
2022/08/19 00:46:53;;;;;;;6.27;5.67;;;19.30;99.90;;;;;;5032773;28;20402;-73
2022/08/19 00:49:25;;;;;;;6.00;4.50;;;19.20;99.90;;;;;;5033652;28;20406;-73
2022/08/19 00:51:55;;;;;;;6.10;5.40;;;19.10;99.90;;;;;;5032229;28;20469;-73
2022/08/19 00:54:21;;;;;;;6.43;5.70;;;19.10;99.90;;;;;;5033277;28;20434;-73
2022/08/19 00:56:48;;;;;;;5.73;5.13;;;19.00;99.90;;;;;;5033491;28;20488;-72
2022/08/19 00:59:15;;;;;;;6.80;5.73;;;19.00;99.90;;;;;;5033463;28;20406;-73
2022/08/19 01:01:44;;;;;;;6.07;5.47;;;19.00;99.90;;;;;;5033012;28;20522;-73
2022/08/19 01:04:09;;;;;;;6.00;4.80;;;19.00;99.90;;;;;;5033403;28;20414;-72
2022/08/19 01:06:37;;;;;;;7.67;5.43;;;18.90;99.90;;;;;;5033122;28;20460;-72
2022/08/19 01:09:04;;;;;;;6.70;5.10;;;18.90;99.90;;;;;;5031994;28;20167;-73
2022/08/19 01:11:33;;;;;;;8.23;5.57;;;18.90;99.90;;;;;;5033119;28;20469;-72
2022/08/19 01:13:59;;;;;;;6.20;5.27;;;18.80;99.90;;;;;;5033148;28;20414;-73
2022/08/19 01:16:28;;;;;;;6.73;5.70;;;18.80;99.90;;;;;;5032829;28;20414;-72
2022/08/19 01:18:53;;;;;;;6.00;5.40;;;18.70;99.90;;;;;;5032914;28;20410;-73
2022/08/19 01:21:50;;;;;;;5.30;4.60;;;18.70;99.90;;;;;;5032955;28;20505;-73
2022/08/19 01:24:16;;;;;;;6.67;5.20;;;18.70;99.90;;;;;;5032732;28;20629;-72
2022/08/19 01:26:44;;;;;;;6.03;5.43;;;18.60;99.90;;;;;;5033235;28;20413;-73
2022/08/19 01:29:10;;;;;;;5.13;4.63;;;18.60;99.90;;;;;;5032756;28;20171;-72
2022/08/19 01:31:36;;;;;;;6.50;5.47;;;18.60;99.90;;;;;;5032940;28;20461;-71
2022/08/19 01:34:03;;;;;;;7.83;5.77;;;18.50;99.90;;;;;;5032720;28;20410;-71
2022/08/19 01:36:32;;;;;;;6.93;5.27;;;18.50;99.90;;;;;;5031241;28;20501;-71
2022/08/19 01:38:59;;;;;;;7.83;6.27;;;18.50;99.90;;;;;;5032691;28;20413;-71
2022/08/19 01:41:24;;;;;;;7.40;5.53;;;18.50;99.90;;;;;;5032642;28;20446;-72
2022/08/19 01:43:52;;;;;;;11.87;6.63;;;18.50;99.90;;;;;;5032516;28;20442;-72
2022/08/19 01:46:17;;;;;;;9.33;7.10;;;18.50;99.90;;;;;;5032275;28;20179;-72
2022/08/19 01:48:44;;;;;;;5.93;5.23;;;18.50;99.90;;;;;;5032498;28;20768;-72
2022/08/19 01:51:11;;;;;;;9.03;7.00;;;18.40;99.90;;;;;;5031027;28;20558;-72
2022/08/19 01:53:38;;;;;;;9.60;6.30;;;18.40;99.90;;;;;;5031098;28;20434;-72
2022/08/19 01:56:05;;;;;;;8.97;6.87;;;18.40;99.90;;;;;;5032166;28;20900;-71
2022/08/19 01:58:39;;;;;;;8.73;7.10;;;18.40;99.90;;;;;;5032113;28;20464;-73
2022/08/19 02:01:06;;;;;;;9.63;7.40;;;18.40;99.90;;;;;;5031227;28;20421;-73
2022/08/19 02:03:31;;;;;;;10.70;8.57;;;18.40;99.90;;;;;;5032206;28;20438;-73
2022/08/19 02:06:05;;;;;;;12.00;8.27;;;18.40;99.90;;;;;;5032007;28;20469;-73
2022/08/19 02:08:33;;;;;;;9.77;8.80;;;18.40;99.90;;;;;;5032336;28;20176;-73
2022/08/19 02:10:58;;;;;;;11.67;8.27;;;18.40;99.90;;;;;;5032205;28;20442;-72
2022/08/19 02:13:26;;;;;;;12.77;9.00;;;18.30;99.90;;;;;;5032299;28;20430;-72
2022/08/19 02:15:51;;;;;;;9.80;7.97;;;18.40;99.90;;;;;;5031881;28;20198;-71
2022/08/19 02:18:17;;;;;;;11.50;7.70;;;18.30;99.90;;;;;;5032134;28;20406;-72
2022/08/19 02:20:44;;;;;;;10.13;8.20;;;18.30;99.90;;;;;;5030818;28;20565;-73
2022/08/19 02:23:11;;;;;;;8.37;6.80;;;18.20;99.90;;;;;;5031993;28;20195;-73
2022/08/19 02:25:38;;;;;;;11.77;8.50;;;18.20;99.90;;;;;;5030548;28;20475;-73
2022/08/19 02:28:04;;;;;;;10.70;9.00;;;18.20;99.90;;;;;;5032003;28;20414;-72
2022/08/19 02:30:30;;;;;;;9.90;8.67;;;18.20;99.90;;;;;;5031881;28;20793;-72
2022/08/19 02:32:56;;;;;;;11.40;8.67;;;18.20;99.90;;;;;;5031893;28;20516;-72
2022/08/19 02:35:21;;;;;;;9.67;8.40;;;18.20;99.90;;;;;;5031719;28;20461;-72
2022/08/19 02:40:34;;;;;;;10.87;8.17;;;18.20;99.90;;;;;;5032185;28;20233;-72
2022/08/19 02:43:00;;;;;;;9.07;7.40;;;18.20;99.90;;;;;;5031814;28;20426;-73
2022/08/19 02:45:26;;;;;;;11.37;7.30;;;18.10;99.90;;;;;;5030289;28;20941;-73
2022/08/19 02:47:52;;;;;;;10.63;8.47;;;18.10;99.90;;;;;;5032018;28;20402;-72
2022/08/19 02:50:18;;;;;;;11.33;9.43;;;18.10;99.90;;;;;;5031735;28;20188;-73
2022/08/19 02:52:44;;;;;;;12.30;9.30;;;18.10;99.90;;;;;;5031868;28;20422;-73
2022/08/19 02:55:10;;;;;;;10.20;7.03;;;18.10;99.90;;;;;;5030128;28;20510;-73
2022/08/19 02:57:36;;;;;;;10.50;8.10;;;18.00;99.90;;;;;;5030685;28;20530;-73
2022/08/19 03:00:05;;;;;;;10.23;7.37;;;18.00;99.90;;;;;;5031731;28;20548;-73
2022/08/19 03:02:30;;;;;;;10.43;7.93;;;18.00;99.90;;;;;;5031630;28;20691;-73
2022/08/19 03:04:57;;;;;;;11.53;9.13;;;18.00;99.90;;;;;;5031254;28;20513;-73
2022/08/19 03:07:22;;;;;;;18.20;13.00;;;18.00;99.90;;;;;;5031669;28;20497;-73
2022/08/19 03:09:48;;;;;;;20.13;13.87;;;18.00;99.90;;;;;;5033291;28;20195;-73
2022/08/19 03:12:13;;;;;;;22.90;14.23;;;18.10;99.90;;;;;;5035363;28;20196;-73
2022/08/19 03:14:39;;;;;;;26.37;16.93;;;18.10;99.90;;;;;;5035186;28;20218;-73
2022/08/19 03:17:06;;;;;;;24.83;14.73;;;18.20;99.90;;;;;;5035339;28;20506;-72
2022/08/19 03:19:32;;;;;;;21.70;15.80;;;18.20;99.90;;;;;;5034895;28;20621;-72
2022/08/19 03:21:58;;;;;;;24.20;16.60;;;18.30;99.90;;;;;;5035032;28;20421;-72
2022/08/19 03:24:24;;;;;;;22.83;14.60;;;18.20;99.90;;;;;;5034903;28;20942;-72
2022/08/19 03:26:58;;;;;;;21.57;15.67;;;18.30;99.90;;;;;;5035103;28;20441;-72
2022/08/19 03:29:25;;;;;;;24.23;15.77;;;18.30;99.90;;;;;;5035076;28;20806;-72
2022/08/19 03:31:51;;;;;;;22.70;14.50;;;18.30;99.90;;;;;;5035017;28;20438;-72
2022/08/19 03:34:27;;;;;;;23.10;16.30;;;18.30;99.90;;;;;;5033475;28;20463;-72
2022/08/19 03:36:56;;;;;;;23.30;16.07;;;18.30;99.90;;;;;;5035049;28;20174;-72
2022/08/19 03:39:22;;;;;;;25.87;16.10;;;18.30;99.90;;;;;;5035030;28;20966;-72
2022/08/19 03:41:49;;;;;;;27.30;15.20;;;18.30;99.90;;;;;;5034799;28;20426;-72
2022/08/19 03:44:19;;;;;;;22.93;14.80;;;18.30;99.90;;;;;;5034724;28;21022;-73
2022/08/19 03:46:47;;;;;;;20.87;15.33;;;18.20;99.90;;;;;;5034855;28;20919;-73
2022/08/19 03:49:13;;;;;;;21.90;14.87;;;18.30;99.90;;;;;;5034746;28;20402;-73
2022/08/19 03:51:39;;;;;;;21.13;15.10;;;18.20;99.90;;;;;;5034656;28;20516;-73
2022/08/19 03:54:11;;;;;;;31.53;20.83;;;18.30;99.90;;;;;;5034804;28;20172;-73
2022/08/19 03:56:38;;;;;;;28.07;18.70;;;18.30;99.90;;;;;;5034582;28;20167;-73
2022/08/19 03:59:05;;;;;;;28.67;19.30;;;18.30;99.90;;;;;;5034697;28;20961;-73
2022/08/19 04:01:31;;;;;;;33.07;20.60;;;18.30;99.90;;;;;;5033350;28;20430;-73
2022/08/19 04:03:59;;;;;;;33.73;20.90;;;18.30;99.90;;;;;;5034430;28;20833;-73
2022/08/19 04:06:29;;;;;;;28.53;19.30;;;18.30;99.90;;;;;;5034430;28;20168;-73
2022/08/19 04:08:57;;;;;;;32.47;19.80;;;18.30;99.90;;;;;;5034877;28;20410;-73
2022/08/19 04:11:25;;;;;;;30.83;19.53;;;18.30;99.90;;;;;;5034679;28;20464;-74
2022/08/19 04:13:52;;;;;;;26.57;19.30;;;18.30;99.90;;;;;;5034452;28;20407;-73
2022/08/19 04:16:19;;;;;;;33.23;20.50;;;18.30;99.90;;;;;;5034066;28;20823;-73
2022/08/19 04:18:46;;;;;;;27.57;19.20;;;18.30;99.90;;;;;;5034239;28;20457;-73
2022/08/19 04:21:20;;;;;;;37.20;22.50;;;18.30;99.90;;;;;;5032880;28;20409;-73
2022/08/19 04:23:46;;;;;;;34.93;20.53;;;18.30;99.90;;;;;;5034029;28;20425;-73
2022/08/19 04:26:23;;;;;;;28.73;19.20;;;18.30;99.90;;;;;;5033898;28;20422;-73
2022/08/19 04:28:50;;;;;;;30.33;18.97;;;18.30;99.90;;;;;;5032842;28;20936;-73
2022/08/19 04:31:21;;;;;;;28.07;18.50;;;18.30;99.90;;;;;;5033922;28;20962;-73
2022/08/19 04:33:47;;;;;;;30.77;18.57;;;18.20;99.90;;;;;;5032726;28;20421;-72
2022/08/19 04:36:20;;;;;;;27.47;17.73;;;18.20;99.90;;;;;;5033699;28;20398;-72
2022/08/19 04:38:47;;;;;;;27.00;18.67;;;18.20;99.90;;;;;;5033801;28;20168;-72
2022/08/19 04:43:56;;;;;;;30.67;19.40;;;18.20;99.90;;;;;;5033795;28;20482;-73
2022/08/19 04:46:22;;;;;;;26.63;18.13;;;18.30;99.90;;;;;;5033601;28;20845;-73
2022/08/19 04:48:48;;;;;;;29.70;17.80;;;18.30;99.90;;;;;;5033630;28;20241;-73
2022/08/19 04:51:13;;;;;;;28.20;18.63;;;18.30;99.90;;;;;;5033489;28;20215;-73
2022/08/19 04:53:41;;;;;;;29.60;18.67;;;18.40;99.90;;;;;;5032170;28;20191;-73
2022/08/19 04:56:12;;;;;;;28.70;18.27;;;18.40;99.90;;;;;;5033319;28;20171;-73
2022/08/19 04:58:42;;;;;;;31.33;18.70;;;18.40;99.90;;;;;;5033559;28;20413;-73
2022/08/19 05:01:08;;;;;;;24.77;17.80;;;18.50;99.90;;;;;;5032287;28;20865;-73
2022/08/19 05:03:34;;;;;;;28.07;18.83;;;18.50;99.90;;;;;;5033330;28;20490;-73
2022/08/19 05:06:09;;;;;;;28.77;19.13;;;18.50;99.90;;;;;;5033285;28;20453;-73
2022/08/19 05:08:41;;;;;;;26.97;16.67;;;18.60;99.90;;;;;;5033390;28;20167;-73
2022/08/19 05:11:09;;;;;;;29.40;17.80;;;18.60;99.90;;;;;;5033264;28;20508;-74
2022/08/19 05:13:34;;;;;;;27.30;19.37;;;18.70;99.90;;;;;;5033206;28;20529;-72
2022/08/19 05:16:00;;;;;;;25.50;15.57;;;18.70;99.90;;;;;;5032827;28;20877;-72
2022/08/19 05:23:58;;;;;;;20.00;14.80;;;18.90;99.90;;;;;;5033251;28;20783;-73
2022/08/19 05:26:25;;;;;;;26.83;16.50;;;19.00;99.90;;;;;;5032492;28;20503;-73
2022/08/19 05:28:52;;;;;;;26.67;16.97;;;19.10;99.90;;;;;;5032823;28;20164;-73
2022/08/19 05:31:18;;;;;;;24.80;16.63;;;19.10;99.90;;;;;;5032635;28;20600;-72
2022/08/19 05:33:44;;;;;;;26.70;17.37;;;19.20;99.90;;;;;;5032462;28;20395;-72
2022/08/19 05:36:09;;;;;;;28.43;16.87;;;19.20;99.90;;;;;;5031190;28;20410;-72
2022/08/19 05:38:35;;;;;;;27.83;18.07;;;19.30;99.90;;;;;;5032668;28;20166;-72
2022/08/19 05:41:09;;;;;;;22.93;16.10;;;19.40;99.90;;;;;;5032977;28;20695;-72
2022/08/19 05:43:34;;;;;;;27.13;17.33;;;19.50;99.90;;;;;;5032587;28;20189;-73
2022/08/19 05:46:00;;;;;;;25.57;16.37;;;19.70;99.90;;;;;;5032393;28;20846;-73
2022/08/19 05:48:26;;;;;;;23.13;17.17;;;19.80;99.90;;;;;;5032676;28;20168;-73
2022/08/19 05:50:51;;;;;;;26.60;16.57;;;19.90;99.90;;;;;;5031988;28;20203;-72
2022/08/19 05:53:18;;;;;;;21.60;16.10;;;19.90;99.90;;;;;;5031058;28;20430;-73
2022/08/19 05:55:43;;;;;;;26.30;16.10;;;20.00;99.90;;;;;;5032126;28;20176;-72
2022/08/19 05:58:09;;;;;;;26.40;18.63;;;20.10;99.90;;;;;;5032151;28;20548;-72
2022/08/19 06:00:37;;;;;;;27.23;17.50;;;20.20;99.90;;;;;;5031151;28;20206;-72
2022/08/19 06:03:03;;;;;;;19.67;13.70;;;20.30;99.90;;;;;;5032290;28;20270;-72
2022/08/19 06:05:32;;;;;;;22.40;15.90;;;20.40;99.90;;;;;;5032055;28;20432;-72
2022/08/19 06:08:01;;;;;;;27.13;17.13;;;20.50;99.90;;;;;;5032200;28;20527;-72
2022/08/19 06:10:26;;;;;;;21.27;15.80;;;20.60;99.90;;;;;;5032103;28;21033;-72
2022/08/19 06:12:53;;;;;;;22.97;16.27;;;20.80;99.90;;;;;;5032043;28;20423;-72
2022/08/19 06:15:18;;;;;;;21.73;14.87;;;21.00;99.90;;;;;;5030525;28;20195;-73
2022/08/19 06:17:44;;;;;;;22.90;15.27;;;21.10;99.90;;;;;;5030813;28;20415;-72
2022/08/19 06:20:12;;;;;;;22.17;16.70;;;21.50;99.90;;;;;;5032167;28;20214;-72
2022/08/19 06:22:40;;;;;;;25.30;16.73;;;21.90;99.90;;;;;;5031890;28;20196;-73
2022/08/19 06:25:08;;;;;;;26.10;16.27;;;22.40;99.90;;;;;;5030488;28;20461;-73
2022/08/19 06:27:33;;;;;;;18.13;13.73;;;22.80;99.90;;;;;;5032071;28;20410;-73
2022/08/19 06:29:59;;;;;;;18.67;15.33;;;23.10;99.90;;;;;;5031953;28;20791;-73
2022/08/19 06:32:25;;;;;;;19.63;14.33;;;23.30;99.90;;;;;;5032001;28;20191;-73
2022/08/19 06:34:50;;;;;;;16.63;13.57;;;23.40;99.90;;;;;;5031722;28;20167;-73
2022/08/19 06:37:16;;;;;;;24.83;17.17;;;23.50;99.90;;;;;;5030633;28;20225;-73
2022/08/19 06:39:43;;;;;;;28.30;16.37;;;23.70;99.90;;;;;;5031854;28;20258;-73
2022/08/19 06:42:12;;;;;;;18.73;14.70;;;23.60;99.90;;;;;;5030541;28;20286;-72
2022/08/19 06:44:40;;;;;;;21.13;15.73;;;23.60;99.90;;;;;;5033122;28;20505;-72
2022/08/19 06:47:08;;;;;;;21.07;16.80;;;23.40;99.90;;;;;;5035878;28;20806;-72
2022/08/19 06:49:35;;;;;;;17.27;14.57;;;23.40;99.90;;;;;;5035465;28;20448;-72
2022/08/19 06:52:02;;;;;;;21.87;16.27;;;23.20;99.90;;;;;;5035133;28;20521;-72
2022/08/19 06:54:29;;;;;;;25.30;14.00;;;23.10;99.90;;;;;;5034220;28;20422;-72
2022/08/19 06:56:56;;;;;;;25.43;18.00;;;23.00;99.90;;;;;;5035688;28;20414;-72
2022/08/19 06:59:26;;;;;;;23.00;14.90;;;22.90;99.90;;;;;;5035486;28;20398;-72
2022/08/19 07:01:54;;;;;;;25.73;18.07;;;22.90;99.90;;;;;;5035278;28;20418;-72
2022/08/19 07:04:22;;;;;;;22.00;15.47;;;22.80;99.90;;;;;;5035101;28;20981;-72
2022/08/19 07:06:49;;;;;;;24.57;16.20;;;22.90;99.90;;;;;;5035204;28;20418;-72
2022/08/19 07:09:17;;;;;;;23.47;17.40;;;22.90;99.90;;;;;;5034037;28;20787;-72
2022/08/19 07:11:49;;;;;;;24.37;16.73;;;22.80;99.90;;;;;;5035133;28;20465;-72
2022/08/19 07:14:17;;;;;;;21.27;15.03;;;22.90;99.90;;;;;;5034841;28;20413;-72
2022/08/19 07:16:45;;;;;;;24.50;16.40;;;22.90;99.90;;;;;;5035222;28;20408;-72
2022/08/19 07:19:11;;;;;;;24.67;17.90;;;22.90;99.90;;;;;;5033719;28;20418;-72
2022/08/19 07:21:37;;;;;;;22.43;16.33;;;22.80;99.90;;;;;;5034930;28;20434;-72
2022/08/19 07:24:03;;;;;;;27.13;17.93;;;22.90;99.90;;;;;;5035004;28;20815;-72
2022/08/19 07:26:37;;;;;;;22.97;17.67;;;22.90;99.90;;;;;;5034716;28;20652;-72
2022/08/19 07:29:02;;;;;;;25.40;17.37;;;23.00;99.90;;;;;;5035036;28;20441;-73
2022/08/19 07:31:28;;;;;;;21.00;15.80;;;23.00;99.90;;;;;;5034740;28;20963;-72
2022/08/19 07:33:56;;;;;;;24.97;17.77;;;23.10;99.90;;;;;;5034725;28;20198;-72
2022/08/19 07:36:30;;;;;;;22.77;16.00;;;23.10;99.90;;;;;;5034468;28;20218;-72
2022/08/19 07:38:56;;;;;;;32.27;20.80;;;23.30;99.90;;;;;;5033565;28;20418;-72
2022/08/19 07:41:24;;;;;;;29.73;19.53;;;23.50;99.90;;;;;;5033164;28;20859;-73
2022/08/19 07:43:49;;;;;;;28.17;19.00;;;23.90;99.90;;;;;;5034670;28;20183;-72
2022/08/19 07:46:16;;;;;;;25.40;19.50;;;24.30;99.90;;;;;;5034300;28;20418;-73
2022/08/19 07:48:45;;;;;;;26.30;17.53;;;24.80;99.90;;;;;;5033378;28;20187;-73
2022/08/19 07:51:11;;;;;;;31.20;20.80;;;25.30;99.90;;;;;;5034310;28;20481;-73
2022/08/19 07:53:38;;;;;;;35.30;21.83;;;25.60;99.90;;;;;;5034396;28;20935;-72
2022/08/19 07:56:05;;;;;;;25.70;17.47;;;25.70;99.90;;;;;;5033733;28;20406;-72
2022/08/19 07:58:33;;;;;;;50.47;20.40;;;25.70;99.90;;;;;;5034373;28;20433;-73
2022/08/19 08:00:59;;;;;;;26.37;17.43;;;25.80;99.90;;;;;;5034297;28;20425;-73
2022/08/19 08:11:41;;;;;;;30.90;20.40;;;27.20;99.90;;;;;;5034054;28;20822;-73
2022/08/19 08:14:09;;;;;;;28.17;19.10;;;27.60;99.90;;;;;;5034060;28;20899;-73
2022/08/19 08:16:36;;;;;;;31.53;19.40;;;27.80;99.90;;;;;;5033828;28;20402;-73
2022/08/19 08:19:05;;;;;;;30.67;20.10;;;28.00;99.90;;;;;;5033753;28;20528;-73
2022/08/19 08:21:31;;;;;;;28.70;18.83;;;28.30;99.90;;;;;;5033941;28;20908;-73
2022/08/19 08:23:57;;;;;;;36.30;19.73;;;28.70;99.90;;;;;;5033826;28;20411;-73
2022/08/19 08:26:24;;;;;;;31.97;20.57;;;29.00;99.90;;;;;;5032114;28;20422;-73
2022/08/19 08:28:50;;;;;;;31.87;22.30;;;29.50;99.90;;;;;;5033727;28;20178;-73
2022/08/19 08:31:18;;;;;;;29.57;19.87;;;29.80;99.90;;;;;;5033792;28;20462;-73
2022/08/19 08:33:43;;;;;;;28.10;19.70;;;30.30;99.90;;;;;;5033677;28;20414;-70
2022/08/19 08:36:10;;;;;;;25.47;17.80;;;30.80;99.90;;;;;;5033479;28;20426;-71
2022/08/19 08:38:37;;;;;;;23.77;19.13;;;31.30;99.90;;;;;;5032409;28;20230;-73
2022/08/19 08:41:25;;;;;;;26.73;18.23;;;31.70;99.90;;;;;;5033692;28;20406;-72
2022/08/19 08:43:52;;;;;;;21.63;16.97;;;32.00;96.80;;;;;;5033546;28;20452;-71
2022/08/19 08:46:25;;;;;;;24.23;16.60;;;32.10;94.10;;;;;;5033337;28;20829;-71
2022/08/19 08:49:05;;;;;;;22.27;16.40;;;31.90;93.20;;;;;;5033496;28;20812;-71
2022/08/19 08:51:38;;;;;;;27.83;19.50;;;31.50;94.40;;;;;;5033179;28;20461;-71
2022/08/19 08:54:10;;;;;;;30.80;17.63;;;31.20;94.50;;;;;;5033331;28;20410;-71
2022/08/19 08:56:39;;;;;;;24.03;16.67;;;30.70;95.20;;;;;;5031882;28;20422;-71
2022/08/19 08:59:16;;;;;;;24.00;17.57;;;30.50;95.90;;;;;;5033265;28;20891;-71
2022/08/19 09:01:43;;;;;;;27.60;17.00;;;30.40;96.60;;;;;;5033176;28;20430;-71
2022/08/19 09:04:12;;;;;;;23.03;15.70;;;30.40;96.90;;;;;;5033096;28;20460;-71
2022/08/19 09:07:03;;;;;;;26.17;15.70;;;30.20;96.80;;;;;;5032475;28;20425;-71
2022/08/19 09:09:34;;;;;;;16.93;13.43;;;30.50;95.70;;;;;;5031928;28;20826;-71
2022/08/19 09:12:31;;;;;;;19.00;13.40;;;30.50;96.70;;;;;;5033039;28;20438;-71
2022/08/19 09:15:08;;;;;;;22.50;15.07;;;30.80;95.70;;;;;;5032690;28;20394;-71
2022/08/19 09:17:35;;;;;;;16.77;13.00;;;31.20;94.60;;;;;;5032588;28;20386;-71
2022/08/19 09:20:06;;;;;;;19.70;14.43;;;31.90;93.00;;;;;;5032812;28;20398;-71
2022/08/19 09:22:32;;;;;;;15.60;11.80;;;32.60;91.60;;;;;;5032678;28;20454;-71
2022/08/19 09:24:58;;;;;;;16.53;12.70;;;33.40;88.40;;;;;;5032460;28;20402;-71
2022/08/19 09:27:28;;;;;;;15.33;12.63;;;34.40;81.00;;;;;;5032704;28;20407;-71
2022/08/19 09:29:55;;;;;;;15.37;13.00;;;35.00;74.40;;;;;;5032620;28;20171;-71
2022/08/19 09:32:22;;;;;;;13.97;11.90;;;35.60;70.50;;;;;;5032581;28;20404;-71
2022/08/19 09:34:47;;;;;;;14.63;11.37;;;35.90;67.00;;;;;;5032259;28;20399;-71
2022/08/19 09:37:13;;;;;;;10.77;9.73;;;36.20;66.20;;;;;;5032445;28;20433;-71
2022/08/19 09:39:43;;;;;;;10.33;9.23;;;36.50;60.80;;;;;;5032423;28;20172;-71
2022/08/19 09:42:11;;;;;;;8.50;7.70;;;36.70;57.90;;;;;;5030624;28;20195;-71
2022/08/19 09:44:38;;;;;;;7.80;6.30;;;36.80;58.80;;;;;;5032238;28;20851;-71
2022/08/19 09:47:04;;;;;;;7.67;6.80;;;37.50;56.60;;;;;;5032043;28;20413;-71
2022/08/19 09:49:31;;;;;;;6.80;6.03;;;38.30;55.40;;;;;;5032358;28;20891;-71
2022/08/19 09:51:57;;;;;;;7.40;6.60;;;38.70;52.70;;;;;;5032058;28;20465;-72
2022/08/19 09:54:23;;;;;;;7.67;6.27;;;39.00;52.50;;;;;;5031934;28;20901;-71
2022/08/19 09:56:49;;;;;;;6.80;6.10;;;39.30;52.10;;;;;;5030905;28;20392;-72
2022/08/19 09:59:15;;;;;;;8.43;7.70;;;40.30;51.90;;;;;;5031901;28;20384;-72
2022/08/19 10:01:41;;;;;;;7.40;6.70;;;40.90;47.90;;;;;;5031942;28;20200;-71
2022/08/19 10:04:09;;;;;;;10.20;8.10;;;41.20;47.10;;;;;;5031927;28;20438;-71
2022/08/19 10:06:37;;;;;;;7.00;6.40;;;41.30;45.70;;;;;;5030699;28;20663;-71
2022/08/19 10:09:06;;;;;;;7.17;6.47;;;41.30;47.00;;;;;;5031609;28;20379;-71
2022/08/19 10:11:32;;;;;;;10.13;8.80;;;41.80;46.40;;;;;;5030484;28;21028;-71
2022/08/19 10:13:58;;;;;;;9.37;8.37;;;42.30;44.20;;;;;;5031848;28;20391;-71
2022/08/19 10:16:25;;;;;;;9.90;8.90;;;42.20;43.50;;;;;;5031536;28;20742;-71
2022/08/19 10:18:52;;;;;;;11.80;10.20;;;41.60;45.00;;;;;;5031775;28;20437;-71
2022/08/19 10:21:22;;;;;;;11.90;9.43;;;41.40;44.10;;;;;;5031706;28;20439;-71
2022/08/19 10:23:50;;;;;;;11.90;10.30;;;40.80;45.30;;;;;;5031748;28;20392;-71
2022/08/19 10:26:24;;;;;;;11.77;10.17;;;40.30;45.70;;;;;;5031425;28;20476;-71
2022/08/19 10:28:50;;;;;;;9.57;8.57;;;40.50;47.80;;;;;;5031713;28;20414;-71
2022/08/19 10:31:20;;;;;;;10.20;9.30;;;41.30;46.00;;;;;;5031635;28;20888;-71
2022/08/19 10:33:47;;;;;;;9.70;8.43;;;41.90;44.50;;;;;;5031855;28;20429;-71
2022/08/19 10:36:21;;;;;;;8.30;7.47;;;42.70;44.20;;;;;;5031484;28;20815;-71
2022/08/19 10:38:49;;;;;;;9.43;7.90;;;43.50;43.00;;;;;;5031607;28;20384;-71
2022/08/19 10:41:18;;;;;;;8.00;7.20;;;43.90;41.00;;;;;;5031440;28;20381;-71
2022/08/19 10:43:45;;;;;;;7.73;7.03;;;44.40;40.90;;;;;;5031514;28;20440;-71
2022/08/19 10:46:13;;;;;;;7.00;6.40;;;44.30;40.60;;;;;;5031185;28;20389;-71
2022/08/19 10:48:40;;;;;;;9.97;7.33;;;44.30;40.00;;;;;;5030260;28;20566;-71
2022/08/19 10:53:51;;;;;;;9.20;8.37;;;44.30;39.50;;;;;;5031466;28;20938;-71
2022/08/19 10:59:03;;;;;;;8.33;7.50;;;44.70;38.80;;;;;;5031505;28;20783;-71
2022/08/19 11:01:30;;;;;;;7.70;6.97;;;44.80;39.40;;;;;;5031357;28;20803;-71
2022/08/19 11:03:57;;;;;;;7.20;6.60;;;45.40;38.30;;;;;;5031475;28;20891;-71
2022/08/19 11:06:23;;;;;;;6.47;5.97;;;45.90;38.50;;;;;;5030945;28;20407;-71
2022/08/19 11:08:48;;;;;;;6.93;5.63;;;46.40;37.50;;;;;;5031361;28;20475;-71
2022/08/19 11:11:14;;;;;;;5.80;5.40;;;46.30;37.10;;;;;;5031275;28;20200;-71
2022/08/19 11:13:41;;;;;;;8.50;6.77;;;46.10;37.40;;;;;;5031240;28;20194;-71
2022/08/19 11:16:14;;;;;;;7.10;6.40;;;46.40;35.80;;;;;;5031035;28;20259;-71
2022/08/19 11:18:46;;;;;;;6.63;6.00;;;46.10;36.00;;;;;;5031177;28;20463;-72
2022/08/19 11:21:20;;;;;;;11.63;10.47;;;46.10;36.90;;;;;;5031218;28;20923;-71
2022/08/19 11:23:49;;;;;;;9.43;8.57;;;46.50;36.70;;;;;;5031267;28;20391;-71
2022/08/19 11:26:15;;;;;;;7.03;6.40;;;47.10;36.00;;;;;;5030982;28;20472;-71
2022/08/19 11:28:41;;;;;;;6.13;5.67;;;47.80;35.20;;;;;;5031265;28;20731;-71
2022/08/19 11:31:15;;;;;;;7.67;7.07;;;47.90;34.90;;;;;;5033194;28;20879;-71
2022/08/19 11:33:41;;;;;;;6.73;6.13;;;48.00;34.50;;;;;;5034775;28;20474;-71
2022/08/19 11:36:07;;;;;;;6.93;6.43;;;48.30;33.50;;;;;;5034537;28;20377;-71
2022/08/19 11:38:35;;;;;;;7.03;6.53;;;48.40;33.50;;;;;;5033459;28;20172;-71
2022/08/19 11:41:09;;;;;;;6.63;5.90;;;48.30;33.00;;;;;;5034657;28;20384;-71
2022/08/19 11:43:35;;;;;;;8.43;5.70;;;47.60;34.40;;;;;;5034637;28;20407;-71
2022/08/19 11:46:10;;;;;;;6.20;5.70;;;47.30;34.20;;;;;;5034177;28;20420;-71
2022/08/19 11:48:36;;;;;;;5.73;5.33;;;47.60;34.50;;;;;;5033393;28;20413;-71
2022/08/19 11:51:06;;;;;;;6.53;5.90;;;47.70;34.50;;;;;;5033099;28;20436;-71
2022/08/19 11:53:34;;;;;;;6.03;5.60;;;48.00;33.50;;;;;;5034327;28;20437;-71
2022/08/19 11:55:59;;;;;;;6.93;6.43;;;48.50;32.90;;;;;;5034069;28;20381;-71
2022/08/19 11:58:25;;;;;;;6.17;5.57;;;48.10;32.20;;;;;;5034378;28;20779;-71
2022/08/19 12:00:51;;;;;;;6.10;5.53;;;48.20;33.20;;;;;;5034239;28;20262;-71
2022/08/19 12:03:18;;;;;;;6.10;5.60;;;48.80;33.30;;;;;;5032783;28;20221;-71
2022/08/19 12:05:43;;;;;;;6.47;5.97;;;49.30;32.80;;;;;;5033831;28;20460;-71
2022/08/19 12:08:09;;;;;;;6.47;5.97;;;48.90;32.80;;;;;;5034206;28;20498;-71
2022/08/19 12:10:35;;;;;;;9.13;8.33;;;48.80;32.90;;;;;;5034009;28;20191;-71
2022/08/19 12:13:00;;;;;;;5.53;5.13;;;47.80;32.60;;;;;;5033942;28;20191;-71
2022/08/19 12:15:28;;;;;;;5.00;4.60;;;46.80;33.30;;;;;;5033882;28;20175;-71
2022/08/19 12:17:56;;;;;;;7.63;6.13;;;47.40;33.70;;;;;;5033980;28;20632;-71
2022/08/19 12:20:23;;;;;;;6.70;5.67;;;48.00;33.20;;;;;;5034079;28;20389;-71
2022/08/19 12:22:49;;;;;;;6.27;5.70;;;47.80;33.00;;;;;;5033790;28;20521;-71
2022/08/19 12:25:14;;;;;;;6.73;5.90;;;47.90;32.70;;;;;;5033663;28;20469;-71
2022/08/19 12:27:40;;;;;;;5.70;5.20;;;48.10;32.80;;;;;;5033771;28;20402;-71
2022/08/19 12:30:09;;;;;;;7.70;6.93;;;48.70;32.40;;;;;;5032485;28;20222;-71
2022/08/19 12:32:35;;;;;;;5.83;5.43;;;48.90;30.10;;;;;;5033884;28;20184;-71
2022/08/19 12:35:00;;;;;;;5.20;4.80;;;49.30;32.30;;;;;;5033536;28;20411;-71
2022/08/19 12:37:26;;;;;;;6.33;5.83;;;49.70;30.90;;;;;;5033703;28;20218;-71
2022/08/19 12:39:52;;;;;;;6.70;6.20;;;50.00;31.50;;;;;;5032470;28;20214;-71
2022/08/19 12:42:17;;;;;;;6.90;6.40;;;50.50;30.40;;;;;;5031076;28;20660;-72
2022/08/19 12:44:44;;;;;;;5.43;5.03;;;51.10;29.70;;;;;;5033266;28;20634;-71
2022/08/19 12:47:12;;;;;;;6.43;5.87;;;51.60;29.90;;;;;;5033405;28;20652;-71
2022/08/19 12:49:39;;;;;;;6.70;6.10;;;51.50;28.70;;;;;;5033484;28;20914;-71
2022/08/19 12:52:05;;;;;;;6.57;6.07;;;51.20;28.80;;;;;;5031909;28;20819;-71
2022/08/19 12:54:31;;;;;;;6.90;6.30;;;51.00;28.80;;;;;;5033096;28;20408;-71
2022/08/19 12:56:57;;;;;;;6.13;5.70;;;50.50;28.70;;;;;;5033216;28;20500;-71
2022/08/19 12:59:23;;;;;;;6.13;5.20;;;50.40;29.30;;;;;;5033266;28;20174;-71
2022/08/19 13:01:49;;;;;;;5.50;5.00;;;50.10;28.10;;;;;;5033165;28;20426;-71